ADDS METAR Data INFO
IDs: Format: Raw Decoded Include TAF

Data at: 1355 UTC 17 Dec 2017

KIBM 171335Z AUTO 00000KT 3/4SM BR OVC002 M02/M02 A3001 RMK AO2 T10201020
KIBM 171315Z AUTO 00000KT 1/2SM FZFG OVC002 M02/M02 A3000 RMK AO2 T10201020
KIBM 171255Z AUTO 00000KT 1/2SM FZFG OVC002 M02/M02 A3000 RMK AO2 T10201020
KIBM 171235Z AUTO 00000KT 2 1/2SM BR OVC002 M02/M02 A3000 RMK AO2 T10201020
KIBM 171215Z AUTO 00000KT 2SM BR OVC002 M02/M02 A2999 RMK AO2 T10201020
KIBM 171155Z AUTO 00000KT 7SM OVC004 M02/M02 A2998 RMK AO2 T10201021 11012 21020
KIBM 171135Z AUTO 07004KT 10SM OVC004 M02/M02 A2997 RMK AO2 T10201020
KIBM 171115Z AUTO 07004KT 10SM OVC004 M02/M02 A2997 RMK AO2 T10191020
KIBM 171055Z AUTO 08003KT 10SM OVC004 M02/M02 A2997 RMK AO2 T10201020
KIBM 171035Z AUTO 07004KT 10SM OVC004 M02/M02 A2996 RMK AO2 T10171020
KIBM 171015Z AUTO 07006KT 10SM OVC004 M02/M02 A2997 RMK AO2 T10171019
KIBM 170955Z AUTO 07005KT 10SM OVC004 M02/M02 A2996 RMK AO2 T10161017
KIBM 170935Z AUTO 07007KT 10SM OVC004 M02/M02 A2996 RMK AO2 T10161017
KIBM 170915Z AUTO 08006KT 7SM OVC004 M02/M02 A2995 RMK AO2 T10161017
KIBM 170855Z AUTO 07006KT 5SM BR OVC004 M01/M02 A2995 RMK AO2 T10151016
KIBM 170835Z AUTO 04005KT 5SM BR OVC004 M01/M02 A2995 RMK AO2 T10151016
KIBM 170815Z AUTO 05004KT 4SM BR OVC004 M01/M02 A2995 RMK AO2 T10151016
KIBM 170755Z AUTO 04005KT 4SM BR OVC004 M01/M02 A2995 RMK AO2 T10151016
KIBM 170735Z AUTO 03006KT 4SM BR OVC002 M01/M01 A2996 RMK AO2 T10151015
KIBM 170715Z AUTO 05004KT 3SM BR OVC002 M01/M01 A2996 RMK AO2 T10141015
KIBM 170655Z AUTO 07005KT 2 1/2SM BR OVC002 M01/M01 A2995 RMK AO2 T10151015 400691015
KIBM 170635Z AUTO 07009KT 2 1/2SM BR OVC002 M01/M01 A2995 RMK AO2 T10131015
KIBM 170615Z AUTO 06008KT 2 1/2SM BR OVC002 M01/M01 A2997 RMK AO2 T10131015
KIBM 170555Z AUTO 05008KT 2 1/2SM BR OVC004 M01/M01 A2997 RMK AO2 T10121013 10005 21013
KIBM 170535Z AUTO 07009KT 2 1/2SM BR OVC004 M01/M01 A2997 RMK AO2 T10121015
KIBM 170515Z AUTO 08009KT 3SM BR OVC004 M01/M01 A2996 RMK AO2 T10111015
KIBM 170455Z AUTO 06008KT 10SM OVC004 M01/M02 A2997 RMK AO2 T10101017
KIBM 170435Z AUTO 07008KT 10SM OVC004 M01/M02 A2996 RMK AO2 T10081016
KIBM 170415Z AUTO 07009KT 10SM OVC006 M01/M01 A2996 RMK AO2 T10071015
KIBM 170355Z AUTO 07012KT 10SM OVC006 M01/M02 A2995 RMK AO2 T10071017
KIBM 170335Z AUTO 06008KT 10SM OVC006 M01/M02 A2995 RMK AO2 T10061016
KIBM 170315Z AUTO 05013KT 10SM OVC008 M01/M02 A2995 RMK AO2 T10061018
KIBM 170255Z AUTO 06010KT 10SM OVC008 00/M02 A2995 RMK AO2 T10031021
KIBM 170235Z AUTO 05010G14KT 10SM OVC008 00/M02 A2994 RMK AO2 T10021021
KIBM 170215Z AUTO 05010KT 10SM OVC008 00/M02 A2994 RMK AO2 T00001021
KIBM 170155Z AUTO 04010KT 10SM OVC010 00/M02 A2994 RMK AO2 T00001020
KIBM 170135Z AUTO 05009KT 10SM OVC010 00/M02 A2993 RMK AO2 T00001021
KIBM 170115Z AUTO 05009KT 10SM OVC012 00/M02 A2992 RMK AO2 T00001021
KIBM 170055Z AUTO 05009KT 10SM OVC014 00/M02 A2991 RMK AO2 T00001024
KIBM 170035Z AUTO 05010KT 10SM SCT016 00/M03 A2991 RMK AO2 T00001027
KIBM 170015Z AUTO 05010KT 10SM CLR 00/M03 A2990 RMK AO2 T00011030
KIBM 162355Z AUTO 06007KT 10SM CLR 01/M03 A2989 RMK AO2 T00051031 10066 20005
KIBM 162335Z AUTO 05008KT 10SM CLR 01/M03 A2988 RMK AO2 T00101032
KIBM 162315Z AUTO 06008KT 10SM CLR 02/M03 A2987 RMK AO2 T00161032
KIBM 162255Z AUTO 06009KT 10SM CLR 02/M03 A2986 RMK AO2 T00241031
KIBM 162235Z AUTO 05010KT 10SM CLR 03/M03 A2986 RMK AO2 T00321031
KIBM 162215Z AUTO 06009KT 10SM CLR 04/M03 A2984 RMK AO2 T00361035
KIBM 162155Z AUTO 06009G14KT 10SM CLR 04/M04 A2984 RMK AO2 T00431036
KIBM 162135Z AUTO 07011KT 10SM CLR 05/M04 A2983 RMK AO2 T00461037
KIBM 162115Z AUTO 06011KT 10SM CLR 05/M04 A2983 RMK AO2 T00511040
KIBM 162055Z AUTO 07010KT 10SM CLR 06/M04 A2983 RMK AO2 T00571045
KIBM 162035Z AUTO 06009G17KT 10SM CLR 06/M05 A2983 RMK AO2 T00611051
KIBM 162015Z AUTO 09010G18KT 10SM CLR 06/M06 A2983 RMK AO2 T00631061
KIBM 161955Z AUTO 07011G17KT 10SM CLR 06/M07 A2983 RMK AO2 T00631066
KIBM 161935Z AUTO 05011G15KT 10SM CLR 07/M07 A2984 RMK AO2 T00651071
KIBM 161915Z AUTO 05010KT 10SM CLR 06/M07 A2984 RMK AO2 T00611074
KIBM 161855Z AUTO 04014KT 10SM CLR 06/M07 A2985 RMK AO2 T00631074
KIBM 161835Z AUTO 03014KT 10SM CLR 05/M08 A2986 RMK AO2 T00531076
KIBM 161815Z AUTO 05013KT 10SM CLR 06/M08 A2985 RMK AO2 T00581077
KIBM 161755Z AUTO 05015G20KT 10SM CLR 06/M07 A2985 RMK AO2 T00641074 10069 20005
KIBM 161735Z AUTO 06017G21KT 10SM CLR 07/M08 A2985 RMK AO2 T00651076
KIBM 161715Z AUTO 06015G23KT 10SM CLR 07/M08 A2985 RMK AO2 T00671076
KIBM 161655Z AUTO 07017G22KT 10SM CLR 07/M08 A2984 RMK AO2 T00661081
KIBM 161635Z AUTO 04017KT 10SM CLR 06/M10 A2984 RMK AO2 T00611096
KIBM 161615Z AUTO 03013KT 10SM CLR 07/M10 A2985 RMK AO2 T00651100
KIBM 161555Z AUTO 01013G17KT 10SM CLR 06/M10 A2985 RMK AO2 T00641105
KIBM 161535Z AUTO 02012KT 10SM CLR 06/M11 A2984 RMK AO2 T00551111
KIBM 161515Z AUTO 01010KT 10SM CLR 05/M12 A2983 RMK AO2 T00501125
KIBM 161455Z AUTO 36010KT 10SM CLR 04/M13 A2982 RMK AO2 T00431135
KIBM 161435Z AUTO 36013G16KT 10SM CLR 04/M14 A2981 RMK AO2 T00431141
KIBM 161415Z AUTO 33007KT 10SM CLR 02/M14 A2982 RMK AO2 T00231141
KIBM 161355Z AUTO 34010KT 10SM CLR 03/M14 A2981 RMK AO2 T00331144
KIBM 161335Z AUTO 32008KT 10SM CLR 03/M14 A2980 RMK AO2 T00301141
KIBM 161315Z AUTO 31009KT 10SM CLR 04/M14 A2980 RMK AO2 T00351137
KIBM 161255Z AUTO 30008KT 10SM CLR 02/M13 A2979 RMK AO2 T00181134
KIBM 161235Z AUTO 30007KT 10SM CLR 01/M13 A2979 RMK AO2 T00081133
KIBM 161215Z AUTO 30006KT 10SM CLR 01/M13 A2979 RMK AO2 T00141134
KIBM 161155Z AUTO 30006KT 10SM CLR 01/M13 A2978 RMK AO2 T00091132 10071 20000
KIBM 161135Z AUTO 30007KT 10SM CLR 02/M13 A2978 RMK AO2 T00181135
KIBM 161115Z AUTO 30005KT 10SM CLR 02/M13 A2978 RMK AO2 T00151135
KIBM 161055Z AUTO 32005KT 10SM CLR 04/M14 A2978 RMK AO2 T00421142
KIBM 161035Z AUTO 00000KT 10SM CLR 02/M13 A2978 RMK AO2 T00161135
KIBM 161015Z AUTO 32006KT 10SM CLR 01/M13 A2977 RMK AO2 T00091134
KIBM 160955Z AUTO 28004KT 10SM CLR 02/M13 A2978 RMK AO2 T00151135
KIBM 160935Z AUTO 28004KT 10SM CLR 01/M14 A2978 RMK AO2 T00121138
KIBM 160915Z AUTO 00000KT 10SM CLR 03/M14 A2979 RMK AO2 T00291142
KIBM 160855Z AUTO 00000KT 10SM CLR 02/M14 A2979 RMK AO2 T00231140
KIBM 160835Z AUTO 27007KT 10SM CLR 03/M14 A2978 RMK AO2 T00271144
KIBM 160815Z AUTO 00000KT 10SM CLR 03/M14 A2977 RMK AO2 T00251145
KIBM 160755Z AUTO 29008KT 10SM CLR 04/M15 A2977 RMK AO2 T00381149
KIBM 160735Z AUTO 28009KT 10SM CLR 04/M15 A2977 RMK AO2 T00401151
KIBM 160715Z AUTO 29010KT 10SM CLR 05/M15 A2977 RMK AO2 T00471153
KIBM 160655Z AUTO 27010KT 10SM CLR 06/M15 A2978 RMK AO2 T00581155 401511087
KIBM 160635Z AUTO 28012KT 10SM CLR 07/M16 A2979 RMK AO2 T00671156
KIBM 160615Z AUTO 27011KT 10SM CLR 05/M15 A2979 RMK AO2 T00451154
KIBM 160555Z AUTO 27009KT 10SM CLR 05/M15 A2979 RMK AO2 T00501155 10089 20011
KIBM 160535Z AUTO 28011KT 10SM CLR 07/M16 A2979 RMK AO2 T00711160
KIBM 160515Z AUTO 27011KT 10SM CLR 02/M14 A2979 RMK AO2 T00241145
KIBM 160455Z AUTO 29004KT 10SM CLR 01/M15 A2979 RMK AO2 T00141150
KIBM 160435Z AUTO 26006KT 10SM CLR 02/M15 A2979 RMK AO2 T00231148
KIBM 160415Z AUTO 26008KT 10SM CLR 04/M15 A2979 RMK AO2 T00381146
KIBM 160355Z AUTO 28010KT 10SM CLR 03/M14 A2979 RMK AO2 T00261140
KIBM 160335Z AUTO 26008KT 10SM CLR 04/M14 A2981 RMK AO2 T00351138
KIBM 160315Z AUTO 26013KT 10SM CLR 04/M14 A2981 RMK AO2 T00421137
KIBM 160300Z AUTO 26012KT 10SM CLR 04/M13 A2982 RMK AO2 T00361135
KIBM 160235Z AUTO 25009KT 10SM CLR 02/M13 A2982 RMK AO2 T00181132
KIBM 160215Z AUTO 25010KT 10SM CLR 02/M13 A2982 RMK AO2 T00211130